sensor_id;sensor_type;location;lat;lon;timestamp;pressure;altitude;pressure_sealevel;temperature;humidity
76216;BME280;65010;50.190;18.930;2024-01-30T00:03:09;100140.25;;;1.32;58.04
76216;BME280;65010;50.190;18.930;2024-01-30T00:06:14;100146.06;;;1.37;58.14
76216;BME280;65010;50.190;18.930;2024-01-30T00:09:24;100139.81;;;1.41;57.90
76216;BME280;65010;50.190;18.930;2024-01-30T00:12:30;100141.38;;;1.45;58.06
76216;BME280;65010;50.190;18.930;2024-01-30T00:15:37;100131.84;;;1.45;57.91
76216;BME280;65010;50.190;18.930;2024-01-30T00:18:45;100140.25;;;1.50;57.76
76216;BME280;65010;50.190;18.930;2024-01-30T00:21:52;100134.13;;;1.52;57.65
76216;BME280;65010;50.190;18.930;2024-01-30T00:24:57;100136.78;;;1.50;57.47
76216;BME280;65010;50.190;18.930;2024-01-30T00:28:04;100131.72;;;1.48;57.46
76216;BME280;65010;50.190;18.930;2024-01-30T00:31:10;100136.13;;;1.46;57.50
76216;BME280;65010;50.190;18.930;2024-01-30T00:34:20;100139.75;;;1.42;57.32
76216;BME280;65010;50.190;18.930;2024-01-30T00:37:26;100136.47;;;1.39;57.51
76216;BME280;65010;50.190;18.930;2024-01-30T00:40:34;100142.53;;;1.38;57.51
76216;BME280;65010;50.190;18.930;2024-01-30T00:43:40;100140.88;;;1.37;57.61
76216;BME280;65010;50.190;18.930;2024-01-30T00:46:46;100140.06;;;1.36;57.43
76216;BME280;65010;50.190;18.930;2024-01-30T00:49:55;100134.88;;;1.36;58.16
76216;BME280;65010;50.190;18.930;2024-01-30T00:53:01;100133.19;;;1.35;57.92
76216;BME280;65010;50.190;18.930;2024-01-30T00:56:07;100119.53;;;1.32;57.87
76216;BME280;65010;50.190;18.930;2024-01-30T00:59:14;100130.75;;;1.32;57.90
76216;BME280;65010;50.190;18.930;2024-01-30T01:02:20;100128.16;;;1.32;57.65
76216;BME280;65010;50.190;18.930;2024-01-30T01:05:29;100123.94;;;1.29;57.58
76216;BME280;65010;50.190;18.930;2024-01-30T01:08:35;100115.38;;;1.27;57.52
76216;BME280;65010;50.190;18.930;2024-01-30T01:11:42;100106.09;;;1.23;57.44
76216;BME280;65010;50.190;18.930;2024-01-30T01:14:47;100117.38;;;1.22;57.38
76216;BME280;65010;50.190;18.930;2024-01-30T01:17:54;100117.50;;;1.19;57.53
76216;BME280;65010;50.190;18.930;2024-01-30T01:21:03;100102.94;;;1.17;57.61
76216;BME280;65010;50.190;18.930;2024-01-30T01:24:10;100091.66;;;1.18;57.67
76216;BME280;65010;50.190;18.930;2024-01-30T01:27:16;100096.78;;;1.19;57.78
76216;BME280;65010;50.190;18.930;2024-01-30T01:30:22;100089.94;;;1.18;57.90
76216;BME280;65010;50.190;18.930;2024-01-30T01:33:28;100091.47;;;1.22;58.17
76216;BME280;65010;50.190;18.930;2024-01-30T01:36:38;100082.66;;;1.26;58.01
76216;BME280;65010;50.190;18.930;2024-01-30T01:39:44;100092.84;;;1.29;58.12
76216;BME280;65010;50.190;18.930;2024-01-30T01:42:52;100089.28;;;1.32;58.26
76216;BME280;65010;50.190;18.930;2024-01-30T01:45:58;100090.06;;;1.34;58.36
76216;BME280;65010;50.190;18.930;2024-01-30T01:49:05;100091.66;;;1.37;58.29
76216;BME280;65010;50.190;18.930;2024-01-30T01:52:15;100092.38;;;1.40;58.36
76216;BME280;65010;50.190;18.930;2024-01-30T01:55:24;100094.84;;;1.42;58.28
76216;BME280;65010;50.190;18.930;2024-01-30T01:58:31;100085.25;;;1.44;58.32
76216;BME280;65010;50.190;18.930;2024-01-30T02:01:38;100073.31;;;1.41;58.38
76216;BME280;65010;50.190;18.930;2024-01-30T02:04:45;100092.75;;;1.50;58.42
76216;BME280;65010;50.190;18.930;2024-01-30T02:07:54;100083.31;;;1.49;58.36
76216;BME280;65010;50.190;18.930;2024-01-30T02:11:01;100086.50;;;1.54;58.14
76216;BME280;65010;50.190;18.930;2024-01-30T02:14:08;100077.13;;;1.52;58.24
76216;BME280;65010;50.190;18.930;2024-01-30T02:17:14;100071.47;;;1.43;58.61
76216;BME280;65010;50.190;18.930;2024-01-30T02:20:22;100086.88;;;1.46;58.47
76216;BME280;65010;50.190;18.930;2024-01-30T02:23:33;100085.97;;;1.47;58.72
76216;BME280;65010;50.190;18.930;2024-01-30T02:26:40;100072.19;;;1.47;58.74
76216;BME280;65010;50.190;18.930;2024-01-30T02:29:46;100073.84;;;1.48;58.86
76216;BME280;65010;50.190;18.930;2024-01-30T02:32:52;100068.81;;;1.45;58.78
76216;BME280;65010;50.190;18.930;2024-01-30T02:35:59;100077.34;;;1.47;58.63
76216;BME280;65010;50.190;18.930;2024-01-30T02:39:07;100079.13;;;1.46;58.71
76216;BME280;65010;50.190;18.930;2024-01-30T02:42:14;100078.19;;;1.47;58.83
76216;BME280;65010;50.190;18.930;2024-01-30T02:45:19;100079.03;;;1.48;58.77
76216;BME280;65010;50.190;18.930;2024-01-30T02:48:26;100074.59;;;1.50;58.82
76216;BME280;65010;50.190;18.930;2024-01-30T02:51:32;100081.31;;;1.54;58.59
76216;BME280;65010;50.190;18.930;2024-01-30T02:54:41;100073.34;;;1.59;58.46
76216;BME280;65010;50.190;18.930;2024-01-30T02:57:47;100074.88;;;1.63;58.54
76216;BME280;65010;50.190;18.930;2024-01-30T03:00:53;100075.63;;;1.65;58.38
76216;BME280;65010;50.190;18.930;2024-01-30T03:03:59;100074.72;;;1.66;58.36
76216;BME280;65010;50.190;18.930;2024-01-30T03:07:06;100073.13;;;1.63;58.40
76216;BME280;65010;50.190;18.930;2024-01-30T03:10:15;100072.13;;;1.66;58.52
76216;BME280;65010;50.190;18.930;2024-01-30T03:13:22;100070.53;;;1.63;58.22
76216;BME280;65010;50.190;18.930;2024-01-30T03:16:28;100075.78;;;1.62;58.38
76216;BME280;65010;50.190;18.930;2024-01-30T03:19:35;100073.13;;;1.63;58.24
76216;BME280;65010;50.190;18.930;2024-01-30T03:22:41;100065.28;;;1.65;58.19
76216;BME280;65010;50.190;18.930;2024-01-30T03:25:51;100069.47;;;1.67;58.25
76216;BME280;65010;50.190;18.930;2024-01-30T03:28:56;100065.09;;;1.68;57.97
76216;BME280;65010;50.190;18.930;2024-01-30T03:32:04;100060.69;;;1.70;58.28
76216;BME280;65010;50.190;18.930;2024-01-30T03:35:10;100064.97;;;1.71;57.95
76216;BME280;65010;50.190;18.930;2024-01-30T03:38:16;100058.19;;;1.68;58.01
76216;BME280;65010;50.190;18.930;2024-01-30T03:41:25;100057.31;;;1.68;58.01
76216;BME280;65010;50.190;18.930;2024-01-30T03:44:31;100060.03;;;1.66;58.11
76216;BME280;65010;50.190;18.930;2024-01-30T03:47:37;100059.78;;;1.71;57.90
76216;BME280;65010;50.190;18.930;2024-01-30T03:50:44;100063.22;;;1.72;57.93
76216;BME280;65010;50.190;18.930;2024-01-30T03:53:49;100068.31;;;1.73;58.04
76216;BME280;65010;50.190;18.930;2024-01-30T03:56:58;100063.97;;;1.74;57.80
76216;BME280;65010;50.190;18.930;2024-01-30T04:00:06;100068.56;;;1.68;57.83
76216;BME280;65010;50.190;18.930;2024-01-30T04:03:17;100069.38;;;1.69;57.72
76216;BME280;65010;50.190;18.930;2024-01-30T04:06:23;100061.53;;;1.70;57.90
76216;BME280;65010;50.190;18.930;2024-01-30T04:09:30;100053.66;;;1.72;57.92
76216;BME280;65010;50.190;18.930;2024-01-30T04:12:38;100060.63;;;1.72;57.84
76216;BME280;65010;50.190;18.930;2024-01-30T04:15:45;100057.19;;;1.71;57.61
76216;BME280;65010;50.190;18.930;2024-01-30T04:18:51;100065.19;;;1.66;57.72
76216;BME280;65010;50.190;18.930;2024-01-30T04:21:58;100056.50;;;1.67;57.60
76216;BME280;65010;50.190;18.930;2024-01-30T04:25:05;100050.41;;;1.68;57.71
76216;BME280;65010;50.190;18.930;2024-01-30T04:28:14;100059.72;;;1.73;57.71
76216;BME280;65010;50.190;18.930;2024-01-30T04:31:20;100051.94;;;1.73;57.64
76216;BME280;65010;50.190;18.930;2024-01-30T04:34:27;100051.78;;;1.76;57.47
76216;BME280;65010;50.190;18.930;2024-01-30T04:37:32;100059.47;;;1.77;57.25
76216;BME280;65010;50.190;18.930;2024-01-30T04:40:39;100059.56;;;1.76;57.34
76216;BME280;65010;50.190;18.930;2024-01-30T04:43:47;100065.50;;;1.78;57.16
76216;BME280;65010;50.190;18.930;2024-01-30T04:46:54;100063.75;;;1.78;57.13
76216;BME280;65010;50.190;18.930;2024-01-30T04:50:01;100052.59;;;1.76;57.07
76216;BME280;65010;50.190;18.930;2024-01-30T04:53:08;100061.25;;;1.77;56.98
76216;BME280;65010;50.190;18.930;2024-01-30T04:56:14;100061.31;;;1.75;57.01
76216;BME280;65010;50.190;18.930;2024-01-30T04:59:23;100055.19;;;1.76;57.21
76216;BME280;65010;50.190;18.930;2024-01-30T05:02:29;100056.81;;;1.79;57.04
76216;BME280;65010;50.190;18.930;2024-01-30T05:05:35;100057.72;;;1.78;56.81
76216;BME280;65010;50.190;18.930;2024-01-30T05:08:41;100053.31;;;1.80;57.04
76216;BME280;65010;50.190;18.930;2024-01-30T05:11:47;100054.13;;;1.80;56.95
76216;BME280;65010;50.190;18.930;2024-01-30T05:14:56;100054.91;;;1.82;57.00
76216;BME280;65010;50.190;18.930;2024-01-30T05:18:03;100052.31;;;1.82;56.55
76216;BME280;65010;50.190;18.930;2024-01-30T05:21:10;100052.47;;;1.79;56.55
76216;BME280;65010;50.190;18.930;2024-01-30T05:24:16;100059.25;;;1.82;56.47
76216;BME280;65010;50.190;18.930;2024-01-30T05:27:23;100059.25;;;1.82;56.54
76216;BME280;65010;50.190;18.930;2024-01-30T05:30:32;100057.72;;;1.78;56.28
76216;BME280;65010;50.190;18.930;2024-01-30T05:33:38;100065.50;;;1.78;56.41
76216;BME280;65010;50.190;18.930;2024-01-30T05:36:46;100063.59;;;1.81;56.52
76216;BME280;65010;50.190;18.930;2024-01-30T05:39:52;100062.66;;;1.82;56.34
76216;BME280;65010;50.190;18.930;2024-01-30T05:42:59;100065.44;;;1.79;56.48
76216;BME280;65010;50.190;18.930;2024-01-30T05:46:08;100060.94;;;1.83;56.45
76216;BME280;65010;50.190;18.930;2024-01-30T05:49:14;100066.59;;;1.91;56.54
76216;BME280;65010;50.190;18.930;2024-01-30T05:52:20;100060.41;;;1.94;56.35
76216;BME280;65010;50.190;18.930;2024-01-30T05:55:27;100053.31;;;1.97;56.34
76216;BME280;65010;50.190;18.930;2024-01-30T05:58:33;100060.59;;;2.06;56.03
76216;BME280;65010;50.190;18.930;2024-01-30T06:01:48;100059.56;;;2.10;55.86
76216;BME280;65010;50.190;18.930;2024-01-30T06:04:54;100057.50;;;2.17;55.58
76216;BME280;65010;50.190;18.930;2024-01-30T06:08:02;100059.00;;;2.21;55.68
76216;BME280;65010;50.190;18.930;2024-01-30T06:11:10;100055.41;;;2.24;55.59
76216;BME280;65010;50.190;18.930;2024-01-30T06:14:17;100058.69;;;2.27;55.45
76216;BME280;65010;50.190;18.930;2024-01-30T06:17:25;100055.28;;;2.27;55.16
76216;BME280;65010;50.190;18.930;2024-01-30T06:20:31;100053.50;;;2.27;55.04
76216;BME280;65010;50.190;18.930;2024-01-30T06:23:38;100058.00;;;2.24;54.92
76216;BME280;65010;50.190;18.930;2024-01-30T06:26:44;100059.09;;;2.20;55.11
76216;BME280;65010;50.190;18.930;2024-01-30T06:29:50;100065.28;;;2.17;55.01
76216;BME280;65010;50.190;18.930;2024-01-30T06:32:59;100058.56;;;2.13;54.80
76216;BME280;65010;50.190;18.930;2024-01-30T06:36:06;100056.97;;;2.10;54.98
76216;BME280;65010;50.190;18.930;2024-01-30T06:39:12;100049.03;;;1.96;54.98
76216;BME280;65010;50.190;18.930;2024-01-30T06:42:18;100061.16;;;1.96;55.18
76216;BME280;65010;50.190;18.930;2024-01-30T06:45:25;100065.06;;;1.87;55.41
76216;BME280;65010;50.190;18.930;2024-01-30T06:48:33;100062.00;;;1.79;55.40
76216;BME280;65010;50.190;18.930;2024-01-30T06:51:40;100063.38;;;1.68;55.73
76216;BME280;65010;50.190;18.930;2024-01-30T06:54:46;100069.00;;;1.59;56.14
76216;BME280;65010;50.190;18.930;2024-01-30T06:57:52;100070.06;;;1.55;56.11
76216;BME280;65010;50.190;18.930;2024-01-30T07:00:58;100067.59;;;1.52;56.52
76216;BME280;65010;50.190;18.930;2024-01-30T07:04:08;100060.88;;;1.48;56.54
76216;BME280;65010;50.190;18.930;2024-01-30T07:07:13;100068.47;;;1.53;56.53
76216;BME280;65010;50.190;18.930;2024-01-30T07:10:20;100062.50;;;1.50;56.71
76216;BME280;65010;50.190;18.930;2024-01-30T07:13:27;100066.00;;;1.49;56.69
76216;BME280;65010;50.190;18.930;2024-01-30T07:16:34;100069.28;;;1.53;56.67
76216;BME280;65010;50.190;18.930;2024-01-30T07:19:42;100049.09;;;1.42;56.75
76216;BME280;65010;50.190;18.930;2024-01-30T07:22:49;100075.00;;;1.60;56.86
76216;BME280;65010;50.190;18.930;2024-01-30T07:25:55;100078.81;;;1.70;56.74
76216;BME280;65010;50.190;18.930;2024-01-30T07:29:01;100082.50;;;1.83;56.39
76216;BME280;65010;50.190;18.930;2024-01-30T07:32:07;100081.38;;;1.89;56.34
76216;BME280;65010;50.190;18.930;2024-01-30T07:35:16;100082.44;;;2.02;56.17
76216;BME280;65010;50.190;18.930;2024-01-30T07:38:23;100071.28;;;2.18;55.83
76216;BME280;65010;50.190;18.930;2024-01-30T07:41:29;100072.13;;;2.36;55.40
76216;BME280;65010;50.190;18.930;2024-01-30T07:44:35;100067.81;;;2.52;54.79
76216;BME280;65010;50.190;18.930;2024-01-30T07:47:42;100080.75;;;2.69;54.37
76216;BME280;65010;50.190;18.930;2024-01-30T07:50:50;100068.53;;;2.87;54.23
76216;BME280;65010;50.190;18.930;2024-01-30T07:53:59;100068.13;;;3.11;54.15
76216;BME280;65010;50.190;18.930;2024-01-30T07:57:11;100069.63;;;3.31;53.13
76216;BME280;65010;50.190;18.930;2024-01-30T08:00:18;100066.19;;;3.46;52.84
76216;BME280;65010;50.190;18.930;2024-01-30T08:03:24;100076.94;;;3.86;52.38
76216;BME280;65010;50.190;18.930;2024-01-30T08:06:33;100068.75;;;4.08;51.34
76216;BME280;65010;50.190;18.930;2024-01-30T08:09:39;100068.41;;;4.29;51.15
76216;BME280;65010;50.190;18.930;2024-01-30T08:12:46;100069.91;;;4.47;50.82
76216;BME280;65010;50.190;18.930;2024-01-30T08:15:52;100073.63;;;4.86;50.78
76216;BME280;65010;50.190;18.930;2024-01-30T08:18:58;100066.66;;;5.14;49.65
76216;BME280;65010;50.190;18.930;2024-01-30T08:22:06;100074.13;;;5.47;48.94
76216;BME280;65010;50.190;18.930;2024-01-30T08:25:13;100074.00;;;5.76;48.32
76216;BME280;65010;50.190;18.930;2024-01-30T08:28:18;100070.09;;;5.96;47.48
76216;BME280;65010;50.190;18.930;2024-01-30T08:31:25;100072.81;;;6.20;47.54
76216;BME280;65010;50.190;18.930;2024-01-30T08:34:32;100068.72;;;6.43;46.57
76216;BME280;65010;50.190;18.930;2024-01-30T08:37:41;100072.66;;;6.62;46.27
76216;BME280;65010;50.190;18.930;2024-01-30T08:40:46;100075.47;;;6.72;45.51
76216;BME280;65010;50.190;18.930;2024-01-30T08:43:52;100072.94;;;6.83;45.41
76216;BME280;65010;50.190;18.930;2024-01-30T08:46:59;100073.22;;;7.04;44.36
76216;BME280;65010;50.190;18.930;2024-01-30T08:50:07;100078.31;;;7.05;43.60
76216;BME280;65010;50.190;18.930;2024-01-30T08:53:17;100067.22;;;7.15;43.42
76216;BME280;65010;50.190;18.930;2024-01-30T08:56:24;100071.19;;;7.20;43.45
76216;BME280;65010;50.190;18.930;2024-01-30T08:59:30;100073.03;;;7.31;43.43
76216;BME280;65010;50.190;18.930;2024-01-30T09:02:37;100073.13;;;7.54;42.91
76216;BME280;65010;50.190;18.930;2024-01-30T09:05:43;100070.19;;;7.82;41.90
76216;BME280;65010;50.190;18.930;2024-01-30T09:08:52;100078.00;;;8.06;41.13
76216;BME280;65010;50.190;18.930;2024-01-30T09:12:01;100062.94;;;8.33;41.27
76216;BME280;65010;50.190;18.930;2024-01-30T09:15:10;100075.34;;;8.53;40.28
76216;BME280;65010;50.190;18.930;2024-01-30T09:18:16;100070.94;;;8.87;39.95
76216;BME280;65010;50.190;18.930;2024-01-30T09:21:24;100067.84;;;9.05;39.45
76216;BME280;65010;50.190;18.930;2024-01-30T09:24:32;100070.34;;;9.39;38.55
76216;BME280;65010;50.190;18.930;2024-01-30T09:27:39;100059.88;;;9.71;37.86
76216;BME280;65010;50.190;18.930;2024-01-30T09:30:45;100061.97;;;9.88;37.26
76216;BME280;65010;50.190;18.930;2024-01-30T09:33:52;100057.50;;;10.00;36.55
76216;BME280;65010;50.190;18.930;2024-01-30T09:36:58;100057.47;;;10.21;36.85
76216;BME280;65010;50.190;18.930;2024-01-30T09:40:09;100068.16;;;10.51;36.40
76216;BME280;65010;50.190;18.930;2024-01-30T09:43:19;100067.03;;;10.74;36.06
76216;BME280;65010;50.190;18.930;2024-01-30T09:46:32;100059.63;;;10.99;35.17
76216;BME280;65010;50.190;18.930;2024-01-30T09:49:43;100050.66;;;11.11;35.02
76216;BME280;65010;50.190;18.930;2024-01-30T09:52:51;100050.59;;;11.32;34.83
76216;BME280;65010;50.190;18.930;2024-01-30T09:56:04;100044.63;;;11.49;34.24
76216;BME280;65010;50.190;18.930;2024-01-30T09:59:12;100043.78;;;11.88;34.44
76216;BME280;65010;50.190;18.930;2024-01-30T10:02:19;100051.19;;;12.32;32.91
76216;BME280;65010;50.190;18.930;2024-01-30T10:05:31;100041.47;;;12.79;32.96
76216;BME280;65010;50.190;18.930;2024-01-30T10:08:39;100030.41;;;13.39;32.77
76216;BME280;65010;50.190;18.930;2024-01-30T10:11:48;100038.84;;;13.97;31.08
76216;BME280;65010;50.190;18.930;2024-01-30T10:14:57;100028.72;;;14.44;30.67
76216;BME280;65010;50.190;18.930;2024-01-30T10:18:04;100023.34;;;14.97;30.74
76216;BME280;65010;50.190;18.930;2024-01-30T10:21:10;100021.13;;;15.59;29.27
76216;BME280;65010;50.190;18.930;2024-01-30T10:24:17;100028.22;;;16.16;28.34
76216;BME280;65010;50.190;18.930;2024-01-30T10:27:27;100015.31;;;16.61;27.25
76216;BME280;65010;50.190;18.930;2024-01-30T10:30:33;100017.53;;;16.97;26.83
76216;BME280;65010;50.190;18.930;2024-01-30T10:33:39;100005.75;;;17.22;25.77
76216;BME280;65010;50.190;18.930;2024-01-30T10:36:50;100001.34;;;17.38;25.18
76216;BME280;65010;50.190;18.930;2024-01-30T10:40:03;99997.19;;;17.35;25.14
76216;BME280;65010;50.190;18.930;2024-01-30T10:43:16;100000.69;;;17.36;25.13
76216;BME280;65010;50.190;18.930;2024-01-30T10:46:31;99992.66;;;17.44;25.69
76216;BME280;65010;50.190;18.930;2024-01-30T10:49:41;99993.19;;;17.62;25.34
76216;BME280;65010;50.190;18.930;2024-01-30T10:52:50;99980.75;;;17.78;25.07
76216;BME280;65010;50.190;18.930;2024-01-30T10:55:59;99982.25;;;17.95;23.77
76216;BME280;65010;50.190;18.930;2024-01-30T10:59:12;99978.03;;;18.16;24.36
76216;BME280;65010;50.190;18.930;2024-01-30T11:02:20;99978.03;;;18.45;23.62
76216;BME280;65010;50.190;18.930;2024-01-30T11:05:27;99977.31;;;18.67;23.50
76216;BME280;65010;50.190;18.930;2024-01-30T11:08:36;99968.63;;;18.79;23.13
76216;BME280;65010;50.190;18.930;2024-01-30T11:11:49;99965.03;;;19.09;23.22
76216;BME280;65010;50.190;18.930;2024-01-30T11:15:07;99960.44;;;19.39;22.98
76216;BME280;65010;50.190;18.930;2024-01-30T11:18:22;99964.34;;;19.64;22.20
76216;BME280;65010;50.190;18.930;2024-01-30T11:21:30;99959.78;;;19.87;22.41
76216;BME280;65010;50.190;18.930;2024-01-30T11:24:40;99961.03;;;20.19;21.85
76216;BME280;65010;50.190;18.930;2024-01-30T11:27:50;99962.25;;;20.58;22.10
76216;BME280;65010;50.190;18.930;2024-01-30T11:31:06;99949.19;;;20.90;21.51
76216;BME280;65010;50.190;18.930;2024-01-30T11:34:15;99957.06;;;21.11;21.37
76216;BME280;65010;50.190;18.930;2024-01-30T11:37:25;99957.69;;;21.20;20.46
76216;BME280;65010;50.190;18.930;2024-01-30T11:40:33;99966.56;;;21.20;20.13
76216;BME280;65010;50.190;18.930;2024-01-30T11:43:40;99961.38;;;21.06;20.02
76216;BME280;65010;50.190;18.930;2024-01-30T11:46:52;99959.22;;;20.74;20.43
76216;BME280;65010;50.190;18.930;2024-01-30T11:49:58;99946.00;;;20.53;20.62
76216;BME280;65010;50.190;18.930;2024-01-30T11:53:05;99944.63;;;20.22;20.19
76216;BME280;65010;50.190;18.930;2024-01-30T11:56:12;99946.44;;;19.87;20.74
76216;BME280;65010;50.190;18.930;2024-01-30T11:59:18;99932.47;;;19.56;20.97
76216;BME280;65010;50.190;18.930;2024-01-30T12:02:27;99914.28;;;19.38;21.51
76216;BME280;65010;50.190;18.930;2024-01-30T12:05:34;99922.72;;;19.42;21.70
76216;BME280;65010;50.190;18.930;2024-01-30T12:08:58;99918.63;;;19.39;21.50
76216;BME280;65010;50.190;18.930;2024-01-30T12:12:08;99919.19;;;19.13;21.42
76216;BME280;65010;50.190;18.930;2024-01-30T12:15:19;99908.94;;;18.74;22.09
76216;BME280;65010;50.190;18.930;2024-01-30T12:18:30;99911.03;;;18.57;22.68
76216;BME280;65010;50.190;18.930;2024-01-30T12:21:38;99890.28;;;18.37;22.36
76216;BME280;65010;50.190;18.930;2024-01-30T12:24:45;99894.78;;;18.37;22.50
76216;BME280;65010;50.190;18.930;2024-01-30T12:27:52;99894.84;;;18.43;22.62
76216;BME280;65010;50.190;18.930;2024-01-30T12:31:01;99891.63;;;18.63;22.24
76216;BME280;65010;50.190;18.930;2024-01-30T12:34:13;99882.50;;;18.94;22.16
76216;BME280;65010;50.190;18.930;2024-01-30T12:37:21;99893.25;;;19.29;22.12
76216;BME280;65010;50.190;18.930;2024-01-30T12:40:28;99884.78;;;19.40;21.48
76216;BME280;65010;50.190;18.930;2024-01-30T12:43:35;99883.75;;;19.41;21.94
76216;BME280;65010;50.190;18.930;2024-01-30T12:46:41;99884.66;;;19.55;21.67
76216;BME280;65010;50.190;18.930;2024-01-30T12:49:53;99879.31;;;19.83;21.70
76216;BME280;65010;50.190;18.930;2024-01-30T12:53:00;99868.72;;;20.03;21.42
76216;BME280;65010;50.190;18.930;2024-01-30T12:56:07;99870.13;;;19.92;21.38
76216;BME280;65010;50.190;18.930;2024-01-30T12:59:13;99872.19;;;19.97;21.22
76216;BME280;65010;50.190;18.930;2024-01-30T13:02:20;99857.84;;;19.63;21.55
76216;BME280;65010;50.190;18.930;2024-01-30T13:05:28;99866.44;;;19.58;21.90
76216;BME280;65010;50.190;18.930;2024-01-30T13:08:35;99869.22;;;19.22;21.68
76216;BME280;65010;50.190;18.930;2024-01-30T13:11:43;99865.88;;;18.70;22.57
76216;BME280;65010;50.190;18.930;2024-01-30T13:14:50;99888.31;;;18.24;23.09
76216;BME280;65010;50.190;18.930;2024-01-30T13:17:56;99877.56;;;17.58;23.63
76216;BME280;65010;50.190;18.930;2024-01-30T13:21:05;99877.22;;;17.00;24.63
76216;BME280;65010;50.190;18.930;2024-01-30T13:24:11;99877.28;;;16.61;25.28
76216;BME280;65010;50.190;18.930;2024-01-30T13:27:17;99878.38;;;16.12;25.72
76216;BME280;65010;50.190;18.930;2024-01-30T13:30:25;99888.63;;;15.76;26.15
76216;BME280;65010;50.190;18.930;2024-01-30T13:33:31;99881.53;;;15.27;26.91
76216;BME280;65010;50.190;18.930;2024-01-30T13:36:40;99884.34;;;14.76;27.55
76216;BME280;65010;50.190;18.930;2024-01-30T13:39:48;99870.94;;;14.27;28.10
76216;BME280;65010;50.190;18.930;2024-01-30T13:42:54;99875.84;;;13.79;28.84
76216;BME280;65010;50.190;18.930;2024-01-30T13:46:01;99888.38;;;13.51;29.59
76216;BME280;65010;50.190;18.930;2024-01-30T13:49:07;99874.81;;;13.02;30.19
76216;BME280;65010;50.190;18.930;2024-01-30T13:52:16;99865.47;;;12.72;30.82
76216;BME280;65010;50.190;18.930;2024-01-30T13:55:27;99858.00;;;12.49;31.34
76216;BME280;65010;50.190;18.930;2024-01-30T13:58:33;99860.16;;;12.26;31.68
76216;BME280;65010;50.190;18.930;2024-01-30T14:01:40;99862.56;;;12.19;32.05
76216;BME280;65010;50.190;18.930;2024-01-30T14:04:46;99863.63;;;11.99;32.51
76216;BME280;65010;50.190;18.930;2024-01-30T14:07:57;99872.34;;;11.62;32.98
76216;BME280;65010;50.190;18.930;2024-01-30T14:11:04;99866.47;;;11.40;33.20
76216;BME280;65010;50.190;18.930;2024-01-30T14:14:10;99867.16;;;11.42;33.67
76216;BME280;65010;50.190;18.930;2024-01-30T14:17:19;99854.13;;;11.31;33.82
76216;BME280;65010;50.190;18.930;2024-01-30T14:20:25;99860.78;;;11.25;34.02
76216;BME280;65010;50.190;18.930;2024-01-30T14:23:34;99866.19;;;11.04;34.51
76216;BME280;65010;50.190;18.930;2024-01-30T14:26:41;99863.44;;;10.96;34.51
76216;BME280;65010;50.190;18.930;2024-01-30T14:29:48;99873.09;;;10.96;34.66
76216;BME280;65010;50.190;18.930;2024-01-30T14:32:53;99878.63;;;10.63;35.07
76216;BME280;65010;50.190;18.930;2024-01-30T14:36:00;99862.84;;;10.44;35.50
76216;BME280;65010;50.190;18.930;2024-01-30T14:39:08;99868.47;;;10.29;35.81
76216;BME280;65010;50.190;18.930;2024-01-30T14:42:15;99867.59;;;10.09;36.08
76216;BME280;65010;50.190;18.930;2024-01-30T14:45:21;99860.22;;;9.94;36.21
76216;BME280;65010;50.190;18.930;2024-01-30T14:48:28;99859.97;;;9.76;36.61
76216;BME280;65010;50.190;18.930;2024-01-30T14:51:34;99860.72;;;9.66;36.53
76216;BME280;65010;50.190;18.930;2024-01-30T14:54:43;99868.88;;;9.63;36.87
76216;BME280;65010;50.190;18.930;2024-01-30T14:57:50;99858.56;;;9.50;37.08
76216;BME280;65010;50.190;18.930;2024-01-30T15:00:57;99856.28;;;9.36;37.21
76216;BME280;65010;50.190;18.930;2024-01-30T15:04:03;99847.56;;;9.15;37.62
76216;BME280;65010;50.190;18.930;2024-01-30T15:07:10;99850.00;;;9.06;37.96
76216;BME280;65010;50.190;18.930;2024-01-30T15:10:28;99854.81;;;9.01;37.98
76216;BME280;65010;50.190;18.930;2024-01-30T15:13:35;99850.31;;;8.92;38.00
76216;BME280;65010;50.190;18.930;2024-01-30T15:16:41;99853.72;;;8.83;38.16
76216;BME280;65010;50.190;18.930;2024-01-30T15:19:48;99859.44;;;8.77;38.40
76216;BME280;65010;50.190;18.930;2024-01-30T15:22:58;99846.88;;;8.59;38.82
76216;BME280;65010;50.190;18.930;2024-01-30T15:26:07;99848.31;;;8.52;38.80
76216;BME280;65010;50.190;18.930;2024-01-30T15:29:13;99846.78;;;8.49;38.84
76216;BME280;65010;50.190;18.930;2024-01-30T15:32:20;99848.59;;;8.38;38.93
76216;BME280;65010;50.190;18.930;2024-01-30T15:35:25;99847.06;;;8.24;39.18
76216;BME280;65010;50.190;18.930;2024-01-30T15:38:32;99855.63;;;8.15;39.40
76216;BME280;65010;50.190;18.930;2024-01-30T15:41:40;99851.72;;;8.09;39.64
76216;BME280;65010;50.190;18.930;2024-01-30T15:44:47;99843.13;;;7.96;39.72
76216;BME280;65010;50.190;18.930;2024-01-30T15:47:53;99853.28;;;8.00;39.81
76216;BME280;65010;50.190;18.930;2024-01-30T15:51:00;99853.38;;;7.99;39.97
76216;BME280;65010;50.190;18.930;2024-01-30T15:54:06;99853.38;;;7.99;39.84
76216;BME280;65010;50.190;18.930;2024-01-30T15:57:15;99854.47;;;7.96;39.87
76216;BME280;65010;50.190;18.930;2024-01-30T16:00:21;99868.97;;;7.89;39.98
76216;BME280;65010;50.190;18.930;2024-01-30T16:03:28;99844.22;;;7.70;40.12
76216;BME280;65010;50.190;18.930;2024-01-30T16:06:34;99858.75;;;7.75;40.31
76216;BME280;65010;50.190;18.930;2024-01-30T16:09:41;99864.19;;;7.72;40.29
76216;BME280;65010;50.190;18.930;2024-01-30T16:12:50;99856.00;;;7.65;40.61
76216;BME280;65010;50.190;18.930;2024-01-30T16:15:57;99858.13;;;7.60;40.59
76216;BME280;65010;50.190;18.930;2024-01-30T16:19:03;99854.94;;;7.56;40.83
76216;BME280;65010;50.190;18.930;2024-01-30T16:22:10;99866.69;;;7.50;40.86